Portada
METAR-TAF:

METAR-TAF

Aeroports :

Nova Orleans, Louisiana, Estats Units d'Amèrica

latitud: 30-02-58N, longitud: 090-01-44W, altitud: 2 m

Observació

L'informe es va fer fa 1 hora i 1 minuts, a les 13:53 UTC
Vent 5 kt del Nord/Nord-Est
Temperatura 27°C
Humitat 70%
Pressió 1019 hPa
Visibilitat: 16.1 km
Cel clar

METAR: KNEW 301353Z 03005KT 10SM CLR 27/21 A3008 RMK AO2 SLP177 T02720211

Hora: 09:54 (14:54 UTC)

Pronòstic

L'informe es va fer fa 3 hores i 33 minuts, a les 11:21 UTC
Pronòstic vàlid del 30 a les 12 UTC al 31 a les 12 UTC
Vent 6 kt amb direcció variable
Visibilitat: 10 km
Núvols disperses a una alçada de 25000 ft

TAF: KNEW 301121Z 3012/3112 VRB06KT P6SM SCT250

Observacions i pronòstics meteorològics de més de 4000 aeroports (METAR i TAF).

Les estacions disponibles són els punts grocs i vermells al mapa.

Posi el ratolí al punt desitjat per veure el nom de l'estació.

Feu clic per veure les observacions i els pronòstics meteorològics.

Per canviar el mapa: feu clic els botons verds amb una creu de color negre per apropar; al botó verd amb un guió per allunyar la imatge; o en les fletxes verdes per a mapes adjacents.


METAR-TAF: